sensor_id;sensor_type;location;lat;lon;timestamp;P1;durP1;ratioP1;P2;durP2;ratioP2
4698;SDS011;33708;49.466;11.176;2024-03-02T00:01:11;65.97;;;36.10;;
4698;SDS011;33708;49.466;11.176;2024-03-02T00:03:38;80.20;;;44.57;;
4698;SDS011;33708;49.466;11.176;2024-03-02T00:06:03;84.03;;;47.97;;
4698;SDS011;33708;49.466;11.176;2024-03-02T00:08:29;88.03;;;48.53;;
4698;SDS011;33708;49.466;11.176;2024-03-02T00:10:58;64.77;;;40.20;;
4698;SDS011;33708;49.466;11.176;2024-03-02T00:13:25;103.30;;;56.03;;
4698;SDS011;33708;49.466;11.176;2024-03-02T00:18:33;73.83;;;43.40;;
4698;SDS011;33708;49.466;11.176;2024-03-02T00:21:00;75.97;;;41.77;;
4698;SDS011;33708;49.466;11.176;2024-03-02T00:23:29;50.77;;;31.87;;
4698;SDS011;33708;49.466;11.176;2024-03-02T00:25:58;49.77;;;29.53;;
4698;SDS011;33708;49.466;11.176;2024-03-02T00:28:25;51.50;;;30.63;;
4698;SDS011;33708;49.466;11.176;2024-03-02T00:30:58;58.83;;;34.80;;
4698;SDS011;33708;49.466;11.176;2024-03-02T00:33:30;57.70;;;32.93;;
4698;SDS011;33708;49.466;11.176;2024-03-02T00:35:59;52.40;;;29.73;;
4698;SDS011;33708;49.466;11.176;2024-03-02T00:38:26;60.03;;;33.07;;
4698;SDS011;33708;49.466;11.176;2024-03-02T00:40:53;43.03;;;27.47;;
4698;SDS011;33708;49.466;11.176;2024-03-02T00:46:08;42.67;;;22.57;;
4698;SDS011;33708;49.466;11.176;2024-03-02T00:48:36;41.37;;;25.17;;
4698;SDS011;33708;49.466;11.176;2024-03-02T00:51:02;44.20;;;26.47;;
4698;SDS011;33708;49.466;11.176;2024-03-02T00:53:29;44.27;;;25.43;;
4698;SDS011;33708;49.466;11.176;2024-03-02T00:55:55;47.37;;;27.57;;
4698;SDS011;33708;49.466;11.176;2024-03-02T00:58:21;41.57;;;24.50;;
4698;SDS011;33708;49.466;11.176;2024-03-02T01:00:47;43.37;;;26.00;;
4698;SDS011;33708;49.466;11.176;2024-03-02T01:03:12;42.77;;;26.70;;
4698;SDS011;33708;49.466;11.176;2024-03-02T01:05:44;34.50;;;21.60;;
4698;SDS011;33708;49.466;11.176;2024-03-02T01:08:10;39.13;;;23.47;;
4698;SDS011;33708;49.466;11.176;2024-03-02T01:10:36;40.33;;;22.97;;
4698;SDS011;33708;49.466;11.176;2024-03-02T01:13:02;37.30;;;23.73;;
4698;SDS011;33708;49.466;11.176;2024-03-02T01:15:27;31.70;;;20.90;;
4698;SDS011;33708;49.466;11.176;2024-03-02T01:17:53;37.53;;;22.40;;
4698;SDS011;33708;49.466;11.176;2024-03-02T01:20:19;44.13;;;25.23;;
4698;SDS011;33708;49.466;11.176;2024-03-02T01:22:45;39.57;;;24.40;;
4698;SDS011;33708;49.466;11.176;2024-03-02T01:25:10;38.50;;;23.30;;
4698;SDS011;33708;49.466;11.176;2024-03-02T01:27:36;41.20;;;23.70;;
4698;SDS011;33708;49.466;11.176;2024-03-02T01:30:01;37.67;;;23.57;;
4698;SDS011;33708;49.466;11.176;2024-03-02T01:32:27;38.80;;;21.93;;
4698;SDS011;33708;49.466;11.176;2024-03-02T01:34:53;37.83;;;23.37;;
4698;SDS011;33708;49.466;11.176;2024-03-02T01:37:18;42.73;;;26.23;;
4698;SDS011;33708;49.466;11.176;2024-03-02T01:39:44;35.90;;;22.20;;
4698;SDS011;33708;49.466;11.176;2024-03-02T01:42:09;58.17;;;24.23;;
4698;SDS011;33708;49.466;11.176;2024-03-02T01:44:36;37.07;;;24.17;;
4698;SDS011;33708;49.466;11.176;2024-03-02T01:47:01;45.50;;;25.10;;
4698;SDS011;33708;49.466;11.176;2024-03-02T01:49:27;41.13;;;23.17;;
4698;SDS011;33708;49.466;11.176;2024-03-02T01:51:53;36.17;;;22.63;;
4698;SDS011;33708;49.466;11.176;2024-03-02T01:54:18;41.43;;;22.63;;
4698;SDS011;33708;49.466;11.176;2024-03-02T01:56:44;36.33;;;19.90;;
4698;SDS011;33708;49.466;11.176;2024-03-02T01:59:10;40.60;;;22.40;;
4698;SDS011;33708;49.466;11.176;2024-03-02T02:01:36;47.87;;;27.40;;
4698;SDS011;33708;49.466;11.176;2024-03-02T02:04:01;41.20;;;23.50;;
4698;SDS011;33708;49.466;11.176;2024-03-02T02:06:27;41.13;;;23.77;;
4698;SDS011;33708;49.466;11.176;2024-03-02T02:08:53;43.50;;;25.13;;
4698;SDS011;33708;49.466;11.176;2024-03-02T02:11:18;38.37;;;23.07;;
4698;SDS011;33708;49.466;11.176;2024-03-02T02:13:44;35.77;;;22.87;;
4698;SDS011;33708;49.466;11.176;2024-03-02T02:16:09;34.33;;;20.60;;
4698;SDS011;33708;49.466;11.176;2024-03-02T02:18:35;35.87;;;21.40;;
4698;SDS011;33708;49.466;11.176;2024-03-02T02:21:02;46.53;;;26.13;;
4698;SDS011;33708;49.466;11.176;2024-03-02T02:23:28;32.87;;;18.97;;
4698;SDS011;33708;49.466;11.176;2024-03-02T02:25:54;40.23;;;21.30;;
4698;SDS011;33708;49.466;11.176;2024-03-02T02:28:19;39.47;;;23.83;;
4698;SDS011;33708;49.466;11.176;2024-03-02T02:30:45;35.43;;;22.90;;
4698;SDS011;33708;49.466;11.176;2024-03-02T02:33:11;39.07;;;22.40;;
4698;SDS011;33708;49.466;11.176;2024-03-02T02:35:36;44.57;;;24.50;;
4698;SDS011;33708;49.466;11.176;2024-03-02T02:38:02;33.07;;;18.97;;
4698;SDS011;33708;49.466;11.176;2024-03-02T02:40:28;35.70;;;21.43;;
4698;SDS011;33708;49.466;11.176;2024-03-02T02:42:58;40.73;;;22.00;;
4698;SDS011;33708;49.466;11.176;2024-03-02T02:45:24;36.67;;;22.00;;
4698;SDS011;33708;49.466;11.176;2024-03-02T02:47:50;35.50;;;21.10;;
4698;SDS011;33708;49.466;11.176;2024-03-02T02:50:15;34.97;;;21.50;;
4698;SDS011;33708;49.466;11.176;2024-03-02T02:52:41;45.37;;;25.00;;
4698;SDS011;33708;49.466;11.176;2024-03-02T02:55:09;36.80;;;21.40;;
4698;SDS011;33708;49.466;11.176;2024-03-02T02:57:36;41.37;;;25.17;;
4698;SDS011;33708;49.466;11.176;2024-03-02T03:00:08;41.00;;;25.97;;
4698;SDS011;33708;49.466;11.176;2024-03-02T03:02:43;48.40;;;26.00;;
4698;SDS011;33708;49.466;11.176;2024-03-02T03:05:12;49.13;;;30.77;;
4698;SDS011;33708;49.466;11.176;2024-03-02T03:07:39;46.70;;;27.13;;
4698;SDS011;33708;49.466;11.176;2024-03-02T03:10:05;44.47;;;26.43;;
4698;SDS011;33708;49.466;11.176;2024-03-02T03:12:32;44.23;;;25.90;;
4698;SDS011;33708;49.466;11.176;2024-03-02T03:14:59;40.33;;;24.40;;
4698;SDS011;33708;49.466;11.176;2024-03-02T03:17:25;39.77;;;25.40;;
4698;SDS011;33708;49.466;11.176;2024-03-02T03:19:50;37.23;;;23.10;;
4698;SDS011;33708;49.466;11.176;2024-03-02T03:22:16;39.67;;;24.17;;
4698;SDS011;33708;49.466;11.176;2024-03-02T03:24:42;40.57;;;24.20;;
4698;SDS011;33708;49.466;11.176;2024-03-02T03:27:08;42.13;;;21.77;;
4698;SDS011;33708;49.466;11.176;2024-03-02T03:29:35;41.27;;;22.80;;
4698;SDS011;33708;49.466;11.176;2024-03-02T03:32:01;38.13;;;22.03;;
4698;SDS011;33708;49.466;11.176;2024-03-02T03:34:27;37.43;;;21.93;;
4698;SDS011;33708;49.466;11.176;2024-03-02T03:36:54;37.80;;;21.80;;
4698;SDS011;33708;49.466;11.176;2024-03-02T03:39:19;42.13;;;24.17;;
4698;SDS011;33708;49.466;11.176;2024-03-02T03:41:45;51.70;;;24.00;;
4698;SDS011;33708;49.466;11.176;2024-03-02T03:44:11;38.63;;;22.97;;
4698;SDS011;33708;49.466;11.176;2024-03-02T03:46:36;33.90;;;23.10;;
4698;SDS011;33708;49.466;11.176;2024-03-02T03:49:02;34.17;;;22.20;;
4698;SDS011;33708;49.466;11.176;2024-03-02T03:51:28;35.77;;;22.10;;
4698;SDS011;33708;49.466;11.176;2024-03-02T03:53:55;31.67;;;20.00;;
4698;SDS011;33708;49.466;11.176;2024-03-02T03:56:21;33.20;;;21.97;;
4698;SDS011;33708;49.466;11.176;2024-03-02T03:58:46;37.70;;;21.77;;
4698;SDS011;33708;49.466;11.176;2024-03-02T04:01:12;31.10;;;19.87;;
4698;SDS011;33708;49.466;11.176;2024-03-02T04:03:38;35.97;;;21.17;;
4698;SDS011;33708;49.466;11.176;2024-03-02T04:06:03;29.03;;;18.50;;
4698;SDS011;33708;49.466;11.176;2024-03-02T04:08:29;31.70;;;19.33;;
4698;SDS011;33708;49.466;11.176;2024-03-02T04:10:55;34.23;;;20.83;;
4698;SDS011;33708;49.466;11.176;2024-03-02T04:13:21;35.37;;;20.10;;
4698;SDS011;33708;49.466;11.176;2024-03-02T04:15:47;35.20;;;19.27;;
4698;SDS011;33708;49.466;11.176;2024-03-02T04:18:12;34.00;;;21.93;;
4698;SDS011;33708;49.466;11.176;2024-03-02T04:20:38;27.67;;;19.03;;
4698;SDS011;33708;49.466;11.176;2024-03-02T04:23:03;32.10;;;19.80;;
4698;SDS011;33708;49.466;11.176;2024-03-02T04:25:29;34.07;;;21.00;;
4698;SDS011;33708;49.466;11.176;2024-03-02T04:27:55;33.47;;;20.07;;
4698;SDS011;33708;49.466;11.176;2024-03-02T04:30:20;33.07;;;20.20;;
4698;SDS011;33708;49.466;11.176;2024-03-02T04:32:46;32.67;;;21.00;;
4698;SDS011;33708;49.466;11.176;2024-03-02T04:35:12;27.40;;;17.57;;
4698;SDS011;33708;49.466;11.176;2024-03-02T04:37:38;25.50;;;16.60;;
4698;SDS011;33708;49.466;11.176;2024-03-02T04:40:04;36.00;;;21.00;;
4698;SDS011;33708;49.466;11.176;2024-03-02T04:42:33;31.10;;;20.33;;
4698;SDS011;33708;49.466;11.176;2024-03-02T04:44:59;31.73;;;21.07;;
4698;SDS011;33708;49.466;11.176;2024-03-02T04:47:25;30.60;;;19.27;;
4698;SDS011;33708;49.466;11.176;2024-03-02T04:49:50;36.47;;;20.60;;
4698;SDS011;33708;49.466;11.176;2024-03-02T04:52:16;31.93;;;18.83;;
4698;SDS011;33708;49.466;11.176;2024-03-02T04:54:42;36.20;;;20.90;;
4698;SDS011;33708;49.466;11.176;2024-03-02T04:57:27;39.87;;;22.37;;
4698;SDS011;33708;49.466;11.176;2024-03-02T04:59:52;35.60;;;21.17;;
4698;SDS011;33708;49.466;11.176;2024-03-02T05:02:18;33.43;;;21.37;;
4698;SDS011;33708;49.466;11.176;2024-03-02T05:04:43;34.83;;;22.10;;
4698;SDS011;33708;49.466;11.176;2024-03-02T05:07:09;37.20;;;20.70;;
4698;SDS011;33708;49.466;11.176;2024-03-02T05:09:35;43.00;;;24.00;;
4698;SDS011;33708;49.466;11.176;2024-03-02T05:12:00;37.20;;;23.70;;
4698;SDS011;33708;49.466;11.176;2024-03-02T05:14:45;39.67;;;24.30;;
4698;SDS011;33708;49.466;11.176;2024-03-02T05:17:11;40.10;;;21.90;;
4698;SDS011;33708;49.466;11.176;2024-03-02T05:19:36;39.47;;;22.33;;
4698;SDS011;33708;49.466;11.176;2024-03-02T05:22:03;39.37;;;22.43;;
4698;SDS011;33708;49.466;11.176;2024-03-02T05:24:29;31.87;;;18.83;;
4698;SDS011;33708;49.466;11.176;2024-03-02T05:26:54;31.50;;;19.77;;
4698;SDS011;33708;49.466;11.176;2024-03-02T05:29:20;39.20;;;22.13;;
4698;SDS011;33708;49.466;11.176;2024-03-02T05:31:46;33.50;;;21.30;;
4698;SDS011;33708;49.466;11.176;2024-03-02T05:34:12;34.97;;;20.83;;
4698;SDS011;33708;49.466;11.176;2024-03-02T05:36:37;39.67;;;23.43;;
4698;SDS011;33708;49.466;11.176;2024-03-02T05:39:04;38.10;;;24.30;;
4698;SDS011;33708;49.466;11.176;2024-03-02T05:41:33;43.40;;;25.23;;
4698;SDS011;33708;49.466;11.176;2024-03-02T05:43:59;40.93;;;24.93;;
4698;SDS011;33708;49.466;11.176;2024-03-02T05:46:25;53.93;;;25.90;;
4698;SDS011;33708;49.466;11.176;2024-03-02T05:48:51;42.67;;;24.90;;
4698;SDS011;33708;49.466;11.176;2024-03-02T05:51:17;48.63;;;26.47;;
4698;SDS011;33708;49.466;11.176;2024-03-02T05:53:42;42.47;;;24.60;;
4698;SDS011;33708;49.466;11.176;2024-03-02T05:56:08;42.17;;;21.93;;
4698;SDS011;33708;49.466;11.176;2024-03-02T05:58:33;40.60;;;25.80;;
4698;SDS011;33708;49.466;11.176;2024-03-02T06:01:26;37.20;;;23.03;;
4698;SDS011;33708;49.466;11.176;2024-03-02T06:03:54;40.03;;;24.53;;
4698;SDS011;33708;49.466;11.176;2024-03-02T06:06:21;42.20;;;24.10;;
4698;SDS011;33708;49.466;11.176;2024-03-02T06:08:47;39.57;;;23.50;;
4698;SDS011;33708;49.466;11.176;2024-03-02T06:11:13;39.10;;;24.50;;
4698;SDS011;33708;49.466;11.176;2024-03-02T06:13:38;41.63;;;22.90;;
4698;SDS011;33708;49.466;11.176;2024-03-02T06:16:04;40.20;;;24.40;;
4698;SDS011;33708;49.466;11.176;2024-03-02T06:18:30;39.00;;;22.50;;
4698;SDS011;33708;49.466;11.176;2024-03-02T06:20:55;42.07;;;25.60;;
4698;SDS011;33708;49.466;11.176;2024-03-02T06:23:21;37.40;;;21.33;;
4698;SDS011;33708;49.466;11.176;2024-03-02T06:25:46;40.67;;;23.30;;
4698;SDS011;33708;49.466;11.176;2024-03-02T06:28:12;38.97;;;20.60;;
4698;SDS011;33708;49.466;11.176;2024-03-02T06:30:40;37.13;;;21.40;;
4698;SDS011;33708;49.466;11.176;2024-03-02T06:33:07;38.60;;;22.80;;
4698;SDS011;33708;49.466;11.176;2024-03-02T06:35:32;43.23;;;24.17;;
4698;SDS011;33708;49.466;11.176;2024-03-02T06:37:58;45.43;;;23.47;;
4698;SDS011;33708;49.466;11.176;2024-03-02T06:40:23;45.57;;;23.70;;
4698;SDS011;33708;49.466;11.176;2024-03-02T06:42:50;37.43;;;23.00;;
4698;SDS011;33708;49.466;11.176;2024-03-02T06:45:15;34.60;;;21.80;;
4698;SDS011;33708;49.466;11.176;2024-03-02T06:47:41;34.00;;;21.97;;
4698;SDS011;33708;49.466;11.176;2024-03-02T06:50:07;44.63;;;24.30;;
4698;SDS011;33708;49.466;11.176;2024-03-02T06:52:33;39.90;;;22.57;;
4698;SDS011;33708;49.466;11.176;2024-03-02T06:54:58;40.60;;;21.53;;
4698;SDS011;33708;49.466;11.176;2024-03-02T06:57:24;42.30;;;25.10;;
4698;SDS011;33708;49.466;11.176;2024-03-02T06:59:50;34.13;;;21.57;;
4698;SDS011;33708;49.466;11.176;2024-03-02T07:02:16;39.73;;;24.50;;
4698;SDS011;33708;49.466;11.176;2024-03-02T07:04:42;38.33;;;22.00;;
4698;SDS011;33708;49.466;11.176;2024-03-02T07:07:07;38.83;;;25.03;;
4698;SDS011;33708;49.466;11.176;2024-03-02T07:09:33;37.10;;;22.13;;
4698;SDS011;33708;49.466;11.176;2024-03-02T07:11:58;33.70;;;22.40;;
4698;SDS011;33708;49.466;11.176;2024-03-02T07:14:24;33.37;;;22.20;;
4698;SDS011;33708;49.466;11.176;2024-03-02T07:17:09;32.23;;;19.97;;
4698;SDS011;33708;49.466;11.176;2024-03-02T07:19:35;29.00;;;19.33;;
4698;SDS011;33708;49.466;11.176;2024-03-02T07:22:01;31.93;;;19.87;;
4698;SDS011;33708;49.466;11.176;2024-03-02T07:24:30;34.40;;;20.80;;
4698;SDS011;33708;49.466;11.176;2024-03-02T07:26:56;27.87;;;19.10;;
4698;SDS011;33708;49.466;11.176;2024-03-02T07:29:21;28.47;;;19.20;;
4698;SDS011;33708;49.466;11.176;2024-03-02T07:31:47;29.80;;;20.07;;
4698;SDS011;33708;49.466;11.176;2024-03-02T07:34:13;28.63;;;19.93;;
4698;SDS011;33708;49.466;11.176;2024-03-02T07:36:38;25.00;;;17.53;;
4698;SDS011;33708;49.466;11.176;2024-03-02T07:39:04;26.53;;;19.53;;
4698;SDS011;33708;49.466;11.176;2024-03-02T07:41:30;24.87;;;16.43;;
4698;SDS011;33708;49.466;11.176;2024-03-02T07:43:56;21.17;;;15.70;;
4698;SDS011;33708;49.466;11.176;2024-03-02T07:46:21;23.80;;;17.50;;
4698;SDS011;33708;49.466;11.176;2024-03-02T07:48:47;22.30;;;16.30;;
4698;SDS011;33708;49.466;11.176;2024-03-02T07:51:13;25.30;;;19.00;;
4698;SDS011;33708;49.466;11.176;2024-03-02T07:53:39;24.10;;;17.73;;
4698;SDS011;33708;49.466;11.176;2024-03-02T07:56:04;23.10;;;16.43;;
4698;SDS011;33708;49.466;11.176;2024-03-02T07:58:31;21.43;;;16.23;;
4698;SDS011;33708;49.466;11.176;2024-03-02T08:00:58;25.20;;;16.60;;
4698;SDS011;33708;49.466;11.176;2024-03-02T08:03:26;25.50;;;17.00;;
4698;SDS011;33708;49.466;11.176;2024-03-02T08:05:52;23.20;;;17.50;;
4698;SDS011;33708;49.466;11.176;2024-03-02T08:08:17;23.20;;;17.37;;
4698;SDS011;33708;49.466;11.176;2024-03-02T08:10:43;22.40;;;16.67;;
4698;SDS011;33708;49.466;11.176;2024-03-02T08:13:09;26.83;;;17.53;;
4698;SDS011;33708;49.466;11.176;2024-03-02T08:15:34;24.77;;;17.33;;
4698;SDS011;33708;49.466;11.176;2024-03-02T08:18:00;24.00;;;15.60;;
4698;SDS011;33708;49.466;11.176;2024-03-02T08:20:26;24.13;;;16.80;;
4698;SDS011;33708;49.466;11.176;2024-03-02T08:22:52;22.20;;;16.63;;
4698;SDS011;33708;49.466;11.176;2024-03-02T08:25:20;21.80;;;15.30;;
4698;SDS011;33708;49.466;11.176;2024-03-02T08:27:46;20.60;;;15.13;;
4698;SDS011;33708;49.466;11.176;2024-03-02T08:30:11;23.10;;;15.43;;
4698;SDS011;33708;49.466;11.176;2024-03-02T08:32:37;22.07;;;15.47;;
4698;SDS011;33708;49.466;11.176;2024-03-02T08:35:03;19.30;;;14.57;;
4698;SDS011;33708;49.466;11.176;2024-03-02T08:37:30;19.80;;;14.77;;
4698;SDS011;33708;49.466;11.176;2024-03-02T08:39:55;21.57;;;16.20;;
4698;SDS011;33708;49.466;11.176;2024-03-02T08:42:21;20.13;;;14.93;;
4698;SDS011;33708;49.466;11.176;2024-03-02T08:44:47;21.83;;;15.57;;
4698;SDS011;33708;49.466;11.176;2024-03-02T08:47:13;21.33;;;15.07;;
4698;SDS011;33708;49.466;11.176;2024-03-02T08:49:39;19.33;;;14.43;;
4698;SDS011;33708;49.466;11.176;2024-03-02T08:52:04;21.47;;;16.63;;
4698;SDS011;33708;49.466;11.176;2024-03-02T08:54:30;23.57;;;13.90;;
4698;SDS011;33708;49.466;11.176;2024-03-02T08:56:56;17.20;;;13.23;;
4698;SDS011;33708;49.466;11.176;2024-03-02T08:59:22;19.17;;;14.50;;
4698;SDS011;33708;49.466;11.176;2024-03-02T09:01:47;17.27;;;13.37;;
4698;SDS011;33708;49.466;11.176;2024-03-02T09:04:13;17.20;;;14.00;;
4698;SDS011;33708;49.466;11.176;2024-03-02T09:06:39;21.03;;;13.63;;
4698;SDS011;33708;49.466;11.176;2024-03-02T09:09:04;19.43;;;13.80;;
4698;SDS011;33708;49.466;11.176;2024-03-02T09:11:30;16.47;;;12.43;;
4698;SDS011;33708;49.466;11.176;2024-03-02T09:13:57;20.13;;;14.90;;
4698;SDS011;33708;49.466;11.176;2024-03-02T09:16:22;16.07;;;12.90;;
4698;SDS011;33708;49.466;11.176;2024-03-02T09:18:49;15.47;;;12.43;;
4698;SDS011;33708;49.466;11.176;2024-03-02T09:21:14;15.80;;;12.27;;
4698;SDS011;33708;49.466;11.176;2024-03-02T09:23:40;16.97;;;13.00;;
4698;SDS011;33708;49.466;11.176;2024-03-02T09:26:06;17.93;;;13.73;;
4698;SDS011;33708;49.466;11.176;2024-03-02T09:28:31;15.80;;;12.30;;
4698;SDS011;33708;49.466;11.176;2024-03-02T09:30:57;16.40;;;12.50;;
4698;SDS011;33708;49.466;11.176;2024-03-02T09:33:22;15.20;;;10.67;;
4698;SDS011;33708;49.466;11.176;2024-03-02T09:35:48;15.97;;;11.10;;
4698;SDS011;33708;49.466;11.176;2024-03-02T09:38:14;15.70;;;11.67;;
4698;SDS011;33708;49.466;11.176;2024-03-02T09:40:41;15.53;;;12.10;;
4698;SDS011;33708;49.466;11.176;2024-03-02T09:43:07;14.90;;;11.77;;
4698;SDS011;33708;49.466;11.176;2024-03-02T09:45:32;12.80;;;9.67;;
4698;SDS011;33708;49.466;11.176;2024-03-02T09:47:59;13.10;;;9.93;;
4698;SDS011;33708;49.466;11.176;2024-03-02T09:50:25;13.90;;;10.30;;
4698;SDS011;33708;49.466;11.176;2024-03-02T09:52:50;14.90;;;10.57;;
4698;SDS011;33708;49.466;11.176;2024-03-02T09:55:19;12.53;;;9.10;;
4698;SDS011;33708;49.466;11.176;2024-03-02T09:57:46;14.23;;;10.50;;
4698;SDS011;33708;49.466;11.176;2024-03-02T10:00:13;14.20;;;10.30;;
4698;SDS011;33708;49.466;11.176;2024-03-02T10:02:40;16.27;;;11.00;;
4698;SDS011;33708;49.466;11.176;2024-03-02T10:05:07;15.37;;;10.57;;
4698;SDS011;33708;49.466;11.176;2024-03-02T10:07:33;17.00;;;12.27;;
4698;SDS011;33708;49.466;11.176;2024-03-02T10:10:00;16.13;;;13.20;;
4698;SDS011;33708;49.466;11.176;2024-03-02T10:12:40;20.40;;;14.40;;
4698;SDS011;33708;49.466;11.176;2024-03-02T10:15:06;15.30;;;12.20;;
4698;SDS011;33708;49.466;11.176;2024-03-02T10:17:34;24.60;;;13.47;;
4698;SDS011;33708;49.466;11.176;2024-03-02T10:20:00;17.00;;;13.57;;
4698;SDS011;33708;49.466;11.176;2024-03-02T10:22:49;15.70;;;11.50;;
4698;SDS011;33708;49.466;11.176;2024-03-02T10:25:33;17.47;;;11.67;;
4698;SDS011;33708;49.466;11.176;2024-03-02T10:27:59;16.57;;;12.47;;
4698;SDS011;33708;49.466;11.176;2024-03-02T10:30:26;18.90;;;12.87;;
4698;SDS011;33708;49.466;11.176;2024-03-02T10:32:53;16.97;;;12.37;;
4698;SDS011;33708;49.466;11.176;2024-03-02T10:35:20;17.83;;;12.60;;
4698;SDS011;33708;49.466;11.176;2024-03-02T10:37:47;21.17;;;14.43;;
4698;SDS011;33708;49.466;11.176;2024-03-02T10:40:13;15.30;;;11.93;;
4698;SDS011;33708;49.466;11.176;2024-03-02T10:42:39;17.63;;;12.23;;
4698;SDS011;33708;49.466;11.176;2024-03-02T10:45:07;16.20;;;13.00;;
4698;SDS011;33708;49.466;11.176;2024-03-02T10:47:35;16.50;;;12.70;;
4698;SDS011;33708;49.466;11.176;2024-03-02T10:50:03;17.43;;;12.77;;
4698;SDS011;33708;49.466;11.176;2024-03-02T10:52:33;16.40;;;11.83;;
4698;SDS011;33708;49.466;11.176;2024-03-02T10:55:02;16.10;;;12.07;;
4698;SDS011;33708;49.466;11.176;2024-03-02T10:57:36;14.67;;;11.93;;
4698;SDS011;33708;49.466;11.176;2024-03-02T11:00:21;14.97;;;12.10;;
4698;SDS011;33708;49.466;11.176;2024-03-02T11:03:03;16.70;;;11.90;;
4698;SDS011;33708;49.466;11.176;2024-03-02T11:05:37;12.87;;;9.93;;
4698;SDS011;33708;49.466;11.176;2024-03-02T11:08:08;15.13;;;11.30;;
4698;SDS011;33708;49.466;11.176;2024-03-02T11:10:41;17.83;;;10.30;;
4698;SDS011;33708;49.466;11.176;2024-03-02T11:13:13;14.40;;;9.87;;
4698;SDS011;33708;49.466;11.176;2024-03-02T11:15:43;12.83;;;9.77;;
4698;SDS011;33708;49.466;11.176;2024-03-02T11:18:09;14.03;;;9.90;;
4698;SDS011;33708;49.466;11.176;2024-03-02T11:20:37;14.57;;;10.97;;
4698;SDS011;33708;49.466;11.176;2024-03-02T11:23:05;14.30;;;10.87;;
4698;SDS011;33708;49.466;11.176;2024-03-02T11:25:31;14.23;;;10.60;;
4698;SDS011;33708;49.466;11.176;2024-03-02T11:33:06;12.60;;;9.50;;
4698;SDS011;33708;49.466;11.176;2024-03-02T11:38:02;16.47;;;11.63;;
4698;SDS011;33708;49.466;11.176;2024-03-02T11:40:28;17.23;;;12.63;;
4698;SDS011;33708;49.466;11.176;2024-03-02T11:42:55;17.53;;;12.80;;
4698;SDS011;33708;49.466;11.176;2024-03-02T11:45:25;20.73;;;13.57;;
4698;SDS011;33708;49.466;11.176;2024-03-02T11:47:52;20.20;;;14.73;;
4698;SDS011;33708;49.466;11.176;2024-03-02T11:53:02;23.63;;;16.43;;
4698;SDS011;33708;49.466;11.176;2024-03-02T11:55:31;20.77;;;14.03;;
4698;SDS011;33708;49.466;11.176;2024-03-02T11:57:59;23.83;;;15.70;;
4698;SDS011;33708;49.466;11.176;2024-03-02T12:00:26;24.03;;;16.10;;
4698;SDS011;33708;49.466;11.176;2024-03-02T12:03:05;19.83;;;14.30;;
4698;SDS011;33708;49.466;11.176;2024-03-02T12:05:32;24.93;;;15.30;;
4698;SDS011;33708;49.466;11.176;2024-03-02T12:07:58;23.30;;;15.50;;
4698;SDS011;33708;49.466;11.176;2024-03-02T12:10:26;26.57;;;13.93;;
4698;SDS011;33708;49.466;11.176;2024-03-02T12:12:58;17.47;;;13.33;;
4698;SDS011;33708;49.466;11.176;2024-03-02T12:15:25;24.77;;;14.53;;
4698;SDS011;33708;49.466;11.176;2024-03-02T12:17:53;23.40;;;15.97;;
4698;SDS011;33708;49.466;11.176;2024-03-02T12:20:22;19.90;;;14.60;;
4698;SDS011;33708;49.466;11.176;2024-03-02T12:22:55;21.17;;;14.80;;
4698;SDS011;33708;49.466;11.176;2024-03-02T12:25:23;21.53;;;14.43;;
4698;SDS011;33708;49.466;11.176;2024-03-02T12:27:50;20.80;;;14.83;;
4698;SDS011;33708;49.466;11.176;2024-03-02T12:30:21;22.63;;;15.37;;
4698;SDS011;33708;49.466;11.176;2024-03-02T12:32:47;26.00;;;17.93;;
4698;SDS011;33708;49.466;11.176;2024-03-02T12:35:14;25.73;;;18.40;;
4698;SDS011;33708;49.466;11.176;2024-03-02T12:37:49;27.03;;;17.50;;
4698;SDS011;33708;49.466;11.176;2024-03-02T12:40:17;25.90;;;17.90;;
4698;SDS011;33708;49.466;11.176;2024-03-02T12:42:44;27.30;;;17.77;;
4698;SDS011;33708;49.466;11.176;2024-03-02T12:45:11;25.17;;;18.23;;
4698;SDS011;33708;49.466;11.176;2024-03-02T12:47:37;23.27;;;16.03;;
4698;SDS011;33708;49.466;11.176;2024-03-02T12:50:07;24.67;;;16.20;;
4698;SDS011;33708;49.466;11.176;2024-03-02T12:52:36;24.27;;;16.40;;
4698;SDS011;33708;49.466;11.176;2024-03-02T12:55:04;20.37;;;14.43;;
4698;SDS011;33708;49.466;11.176;2024-03-02T12:57:31;23.40;;;16.20;;
4698;SDS011;33708;49.466;11.176;2024-03-02T13:00:00;22.60;;;16.30;;
4698;SDS011;33708;49.466;11.176;2024-03-02T13:02:34;24.53;;;16.97;;
4698;SDS011;33708;49.466;11.176;2024-03-02T13:05:10;30.80;;;17.13;;
4698;SDS011;33708;49.466;11.176;2024-03-02T13:07:36;26.27;;;18.00;;
4698;SDS011;33708;49.466;11.176;2024-03-02T13:10:03;25.33;;;16.20;;
4698;SDS011;33708;49.466;11.176;2024-03-02T13:12:29;22.70;;;15.73;;
4698;SDS011;33708;49.466;11.176;2024-03-02T13:14:57;27.27;;;15.13;;
4698;SDS011;33708;49.466;11.176;2024-03-02T13:17:23;21.60;;;15.20;;
4698;SDS011;33708;49.466;11.176;2024-03-02T13:19:52;21.20;;;14.20;;
4698;SDS011;33708;49.466;11.176;2024-03-02T13:22:20;23.73;;;16.03;;
4698;SDS011;33708;49.466;11.176;2024-03-02T13:24:46;21.10;;;12.63;;
4698;SDS011;33708;49.466;11.176;2024-03-02T13:27:12;21.97;;;14.00;;
4698;SDS011;33708;49.466;11.176;2024-03-02T13:29:38;20.40;;;13.43;;
4698;SDS011;33708;49.466;11.176;2024-03-02T13:32:04;17.60;;;12.17;;
4698;SDS011;33708;49.466;11.176;2024-03-02T13:34:30;21.20;;;12.77;;
4698;SDS011;33708;49.466;11.176;2024-03-02T13:36:55;18.30;;;11.73;;
4698;SDS011;33708;49.466;11.176;2024-03-02T13:39:21;21.20;;;12.80;;
4698;SDS011;33708;49.466;11.176;2024-03-02T13:41:48;20.60;;;13.97;;
4698;SDS011;33708;49.466;11.176;2024-03-02T13:44:20;21.80;;;14.57;;
4698;SDS011;33708;49.466;11.176;2024-03-02T13:46:46;28.47;;;15.40;;
4698;SDS011;33708;49.466;11.176;2024-03-02T13:49:13;22.60;;;15.17;;
4698;SDS011;33708;49.466;11.176;2024-03-02T13:51:39;24.47;;;15.77;;
4698;SDS011;33708;49.466;11.176;2024-03-02T13:54:04;25.53;;;16.33;;
4698;SDS011;33708;49.466;11.176;2024-03-02T13:56:30;31.03;;;19.20;;
4698;SDS011;33708;49.466;11.176;2024-03-02T13:58:57;30.30;;;18.80;;
4698;SDS011;33708;49.466;11.176;2024-03-02T14:01:23;30.20;;;18.90;;
4698;SDS011;33708;49.466;11.176;2024-03-02T14:03:49;27.13;;;17.50;;
4698;SDS011;33708;49.466;11.176;2024-03-02T14:06:14;31.90;;;18.83;;
4698;SDS011;33708;49.466;11.176;2024-03-02T14:08:40;31.97;;;19.17;;
4698;SDS011;33708;49.466;11.176;2024-03-02T14:11:09;33.87;;;20.07;;
4698;SDS011;33708;49.466;11.176;2024-03-02T14:13:39;30.40;;;19.70;;
4698;SDS011;33708;49.466;11.176;2024-03-02T14:16:06;29.77;;;19.70;;
4698;SDS011;33708;49.466;11.176;2024-03-02T14:18:32;24.90;;;17.53;;
4698;SDS011;33708;49.466;11.176;2024-03-02T14:20:57;29.67;;;18.30;;
4698;SDS011;33708;49.466;11.176;2024-03-02T14:23:23;31.30;;;19.10;;
4698;SDS011;33708;49.466;11.176;2024-03-02T14:25:50;32.13;;;20.10;;
4698;SDS011;33708;49.466;11.176;2024-03-02T14:28:16;29.23;;;18.33;;
4698;SDS011;33708;49.466;11.176;2024-03-02T14:30:44;26.87;;;18.50;;
4698;SDS011;33708;49.466;11.176;2024-03-02T14:33:09;41.60;;;19.50;;
4698;SDS011;33708;49.466;11.176;2024-03-02T14:35:35;31.97;;;19.47;;